Time;durP1;ratioP1;P1;durP2;ratioP2;P2;SDS_P1;SDS_P2;PMS_P1;PMS_P2;Temp;Humidity;BMP_temperature;BMP_pressure;BME280_temperature;BME280_humidity;BME280_pressure;Samples;Min_cycle;Max_cycle;Signal;HPM_P1;HPM_P2
2023/03/19 00:02:18;;;;;;;6.47;4.68;;;17.00;64.30;;;;;;5092817;28;20028;-24
2023/03/19 00:04:45;;;;;;;7.53;5.00;;;16.90;64.30;;;;;;5092958;28;20020;-23
2023/03/19 00:07:11;;;;;;;10.82;5.45;;;17.00;64.40;;;;;;5092836;28;20361;-24
2023/03/19 00:09:37;;;;;;;7.70;5.43;;;16.90;64.40;;;;;;5092806;28;20510;-24
2023/03/19 00:12:04;;;;;;;7.60;4.90;;;17.00;64.40;;;;;;5092577;28;20048;-24
2023/03/19 00:14:30;;;;;;;8.60;5.15;;;17.00;64.40;;;;;;5093241;28;20104;-24
2023/03/19 00:16:56;;;;;;;7.18;5.10;;;17.00;64.40;;;;;;5092155;28;20105;-24
2023/03/19 00:19:22;;;;;;;7.35;5.00;;;16.90;64.40;;;;;;5092541;28;20024;-23
2023/03/19 00:21:47;;;;;;;7.55;4.38;;;16.90;64.40;;;;;;5092531;28;20127;-24
2023/03/19 00:24:16;;;;;;;6.18;4.47;;;16.90;64.40;;;;;;5092943;28;20024;-24
2023/03/19 00:26:42;;;;;;;7.80;5.13;;;16.90;64.40;;;;;;5092519;28;20036;-23
2023/03/19 00:29:08;;;;;;;9.93;5.15;;;16.90;64.40;;;;;;5092488;28;20022;-23
2023/03/19 00:31:34;;;;;;;7.85;5.00;;;16.90;64.40;;;;;;5092646;28;20020;-23
2023/03/19 00:34:01;;;;;;;7.43;4.70;;;16.90;64.40;;;;;;5092749;28;20028;-24
2023/03/19 00:36:28;;;;;;;7.38;5.10;;;16.90;64.40;;;;;;5092400;28;20361;-24
2023/03/19 00:38:55;;;;;;;7.40;5.18;;;16.90;64.40;;;;;;5092313;28;20032;-24
2023/03/19 00:41:21;;;;;;;9.23;5.13;;;16.90;64.40;;;;;;5092759;28;20028;-23
2023/03/19 00:43:52;;;;;;;7.22;5.18;;;16.90;64.40;;;;;;5092294;28;20020;-23
2023/03/19 00:46:19;;;;;;;7.97;5.20;;;16.90;64.40;;;;;;5092779;28;20024;-23
2023/03/19 00:48:46;;;;;;;8.75;5.00;;;16.90;64.40;;;;;;5092252;28;20020;-24
2023/03/19 00:51:11;;;;;;;8.43;5.38;;;16.90;64.40;;;;;;5092398;28;20028;-24
2023/03/19 00:53:39;;;;;;;7.03;5.15;;;16.90;64.40;;;;;;5093267;28;20033;-25
2023/03/19 00:56:06;;;;;;;7.57;5.13;;;16.90;64.40;;;;;;5096060;28;20024;-24
2023/03/19 00:58:33;;;;;;;8.10;5.20;;;16.90;64.40;;;;;;5095956;28;20085;-24
2023/03/19 01:00:59;;;;;;;6.88;4.70;;;16.90;64.40;;;;;;5096017;28;20110;-24
2023/03/19 01:03:25;;;;;;;7.40;5.03;;;16.90;64.40;;;;;;5095813;28;20024;-24
2023/03/19 01:05:51;;;;;;;9.18;5.50;;;16.90;64.40;;;;;;5095551;28;20028;-24
2023/03/19 01:08:18;;;;;;;7.38;5.00;;;16.90;64.40;;;;;;5096213;28;20074;-25
2023/03/19 01:10:45;;;;;;;7.75;5.22;;;16.80;64.30;;;;;;5095735;28;20035;-24
2023/03/19 01:13:12;;;;;;;7.32;5.03;;;16.90;64.40;;;;;;5095482;28;20483;-24
2023/03/19 01:15:40;;;;;;;7.38;5.03;;;16.90;64.40;;;;;;5094234;28;20134;-25
2023/03/19 01:18:07;;;;;;;7.75;4.93;;;16.90;64.40;;;;;;5095804;28;20089;-24
2023/03/19 01:20:35;;;;;;;6.63;4.90;;;16.80;64.40;;;;;;5095484;28;20115;-25
2023/03/19 01:23:01;;;;;;;8.18;5.43;;;16.80;64.40;;;;;;5095701;28;20032;-24
2023/03/19 01:25:27;;;;;;;7.20;5.20;;;16.80;64.40;;;;;;5095511;28;20072;-25
2023/03/19 01:27:53;;;;;;;8.15;5.20;;;16.80;64.40;;;;;;5095110;28;20470;-24
2023/03/19 01:30:19;;;;;;;7.55;5.15;;;16.80;64.40;;;;;;5095255;28;20380;-24
2023/03/19 01:32:45;;;;;;;7.53;5.40;;;16.80;64.50;;;;;;5095315;28;20032;-24
2023/03/19 01:35:11;;;;;;;8.35;4.70;;;16.80;64.50;;;;;;5095780;28;20051;-24
2023/03/19 01:37:37;;;;;;;8.02;5.10;;;16.80;64.50;;;;;;5095149;28;20119;-24
2023/03/19 01:40:05;;;;;;;8.00;5.30;;;16.80;64.50;;;;;;5095081;28;20150;-25
2023/03/19 01:42:32;;;;;;;7.00;5.25;;;16.80;64.50;;;;;;5095227;28;20016;-25
2023/03/19 01:44:58;;;;;;;7.63;5.05;;;16.80;64.50;;;;;;5095119;28;20081;-25
2023/03/19 01:47:37;;;;;;;8.10;5.50;;;16.70;64.50;;;;;;5095053;28;20016;-25
2023/03/19 01:50:04;;;;;;;8.25;5.10;;;16.80;64.50;;;;;;5095238;28;20046;-24
2023/03/19 01:52:33;;;;;;;8.80;5.30;;;16.80;64.50;;;;;;5094907;28;20020;-25
2023/03/19 01:55:04;;;;;;;6.65;5.13;;;16.70;64.50;;;;;;5093533;28;20034;-25
2023/03/19 01:57:31;;;;;;;7.95;5.50;;;16.70;64.50;;;;;;5094790;28;20035;-25
2023/03/19 02:00:00;;;;;;;8.15;5.47;;;16.70;64.50;;;;;;5094616;28;20495;-23
2023/03/19 02:02:32;;;;;;;8.15;5.40;;;16.70;64.50;;;;;;5095406;28;20016;-24
2023/03/19 02:05:10;;;;;;;7.80;5.47;;;16.70;64.50;;;;;;5094195;28;20067;-24
2023/03/19 02:07:40;;;;;;;7.78;5.10;;;16.70;64.50;;;;;;5094591;28;20549;-25
2023/03/19 02:10:13;;;;;;;8.75;5.28;;;16.70;64.50;;;;;;5093244;28;20112;-24
2023/03/19 02:12:39;;;;;;;8.05;5.03;;;16.70;64.50;;;;;;5094613;28;20021;-25
2023/03/19 02:15:06;;;;;;;7.15;4.97;;;16.70;64.50;;;;;;5094634;28;20028;-24
2023/03/19 02:17:33;;;;;;;8.05;5.25;;;16.70;64.50;;;;;;5094164;28;20083;-24
2023/03/19 02:20:11;;;;;;;8.43;5.28;;;16.70;64.50;;;;;;5092875;28;20031;-23
2023/03/19 02:23:02;;;;;;;7.97;5.35;;;16.70;64.50;;;;;;5094469;28;20451;-24
2023/03/19 02:25:38;;;;;;;7.30;5.45;;;16.60;64.50;;;;;;5094700;28;20032;-24
2023/03/19 02:28:05;;;;;;;9.82;5.55;;;16.70;64.50;;;;;;5093893;28;20063;-24
2023/03/19 02:30:33;;;;;;;8.65;5.43;;;16.70;64.50;;;;;;5094664;28;20107;-24
2023/03/19 02:33:01;;;;;;;6.63;4.95;;;16.60;64.50;;;;;;5094567;28;20024;-25
2023/03/19 02:35:32;;;;;;;8.07;5.07;;;16.60;64.50;;;;;;5094424;28;20039;-25
2023/03/19 02:38:00;;;;;;;9.38;4.78;;;16.60;64.50;;;;;;5093912;28;20119;-25
2023/03/19 02:40:31;;;;;;;7.10;5.50;;;16.60;64.60;;;;;;5094444;28;20016;-25
2023/03/19 02:42:57;;;;;;;7.05;4.80;;;16.60;64.50;;;;;;5094571;28;20123;-24
2023/03/19 02:45:28;;;;;;;6.72;5.07;;;16.60;64.60;;;;;;5094522;28;20103;-24
2023/03/19 02:47:55;;;;;;;7.80;5.18;;;16.60;64.60;;;;;;5094045;28;20074;-24
2023/03/19 02:50:21;;;;;;;7.50;5.20;;;16.60;64.60;;;;;;5093628;28;20032;-24
2023/03/19 02:52:47;;;;;;;8.48;5.47;;;16.60;64.60;;;;;;5093858;28;20127;-24
2023/03/19 02:55:13;;;;;;;7.30;5.40;;;16.60;64.60;;;;;;5093814;28;20058;-24
2023/03/19 02:57:39;;;;;;;8.68;5.18;;;16.60;64.60;;;;;;5092476;28;20032;-24
2023/03/19 03:00:07;;;;;;;8.38;5.40;;;16.60;64.60;;;;;;5093421;28;20027;-25
2023/03/19 03:02:33;;;;;;;8.05;5.45;;;16.60;64.60;;;;;;5093670;28;20028;-25
2023/03/19 03:04:59;;;;;;;7.43;5.60;;;16.60;64.60;;;;;;5093864;28;20020;-25
2023/03/19 03:07:25;;;;;;;7.82;5.18;;;16.60;64.60;;;;;;5093428;28;20459;-25
2023/03/19 03:09:52;;;;;;;7.78;5.30;;;16.60;64.60;;;;;;5093364;28;20050;-24
2023/03/19 03:12:17;;;;;;;8.70;5.20;;;16.60;64.60;;;;;;5093415;28;20055;-24
2023/03/19 03:14:44;;;;;;;8.30;5.43;;;16.60;64.60;;;;;;5092762;28;20485;-25
2023/03/19 03:17:10;;;;;;;7.28;5.05;;;16.60;64.60;;;;;;5092414;28;20046;-24
2023/03/19 03:19:36;;;;;;;8.77;5.47;;;16.60;64.60;;;;;;5093101;28;20036;-24
2023/03/19 03:22:02;;;;;;;8.05;5.55;;;16.60;64.60;;;;;;5093001;28;20031;-24
2023/03/19 03:24:28;;;;;;;7.32;5.32;;;16.50;64.60;;;;;;5093406;28;20032;-24
2023/03/19 03:26:55;;;;;;;8.48;5.40;;;16.60;64.60;;;;;;5093315;28;20032;-24
2023/03/19 03:29:21;;;;;;;8.10;5.10;;;16.60;64.60;;;;;;5092137;28;20115;-24
2023/03/19 03:31:46;;;;;;;6.65;4.93;;;16.60;64.60;;;;;;5092763;28;20115;-24
2023/03/19 03:34:12;;;;;;;8.30;5.70;;;16.50;64.60;;;;;;5093006;28;20024;-23
2023/03/19 03:36:38;;;;;;;8.35;4.97;;;16.50;64.60;;;;;;5092812;28;20024;-24
2023/03/19 03:39:04;;;;;;;7.32;5.32;;;16.50;64.60;;;;;;5093034;28;20031;-24
2023/03/19 03:41:30;;;;;;;9.20;5.95;;;16.50;64.70;;;;;;5093302;28;20020;-24
2023/03/19 03:43:56;;;;;;;8.05;5.22;;;16.50;64.60;;;;;;5092898;28;20039;-25
2023/03/19 03:46:23;;;;;;;7.28;5.07;;;16.50;64.60;;;;;;5091845;28;20073;-25
2023/03/19 03:48:50;;;;;;;7.65;5.15;;;16.50;64.60;;;;;;5092832;28;20052;-25
2023/03/19 03:51:18;;;;;;;7.55;5.43;;;16.50;64.70;;;;;;5092760;28;20468;-24
2023/03/19 03:53:44;;;;;;;8.52;5.18;;;16.50;64.60;;;;;;5093131;28;20017;-25
2023/03/19 03:56:10;;;;;;;7.90;5.35;;;16.50;64.60;;;;;;5093364;28;20105;-24
2023/03/19 03:58:36;;;;;;;8.60;5.65;;;16.50;64.60;;;;;;5093158;28;20066;-24
2023/03/19 04:01:02;;;;;;;7.75;5.32;;;16.50;64.60;;;;;;5093009;28;20044;-25
2023/03/19 04:03:28;;;;;;;8.43;5.32;;;16.50;64.50;;;;;;5093441;28;20043;-25
2023/03/19 04:05:54;;;;;;;8.75;5.50;;;16.50;64.60;;;;;;5092983;28;20392;-24
2023/03/19 04:08:21;;;;;;;8.32;5.15;;;16.50;64.60;;;;;;5093278;28;20432;-24
2023/03/19 04:10:47;;;;;;;7.75;5.22;;;16.50;64.60;;;;;;5092954;28;20063;-25
2023/03/19 04:13:13;;;;;;;7.45;5.10;;;16.50;64.60;;;;;;5092902;28;20075;-24
2023/03/19 04:15:42;;;;;;;7.07;5.15;;;16.50;64.60;;;;;;5092919;28;20027;-24
2023/03/19 04:18:08;;;;;;;8.68;5.05;;;16.40;64.60;;;;;;5091362;28;20403;-24
2023/03/19 04:20:34;;;;;;;8.07;5.25;;;16.40;64.60;;;;;;5092696;28;20016;-23
2023/03/19 04:23:00;;;;;;;7.85;5.10;;;16.50;64.70;;;;;;5092660;28;20024;-24
2023/03/19 04:25:26;;;;;;;6.68;5.20;;;16.50;64.70;;;;;;5092977;28;20499;-25
2023/03/19 04:27:52;;;;;;;7.28;5.10;;;16.40;64.70;;;;;;5095298;28;20024;-24
2023/03/19 04:30:19;;;;;;;7.88;5.35;;;16.40;64.60;;;;;;5097268;28;20024;-25
2023/03/19 04:32:46;;;;;;;7.30;5.45;;;16.40;64.60;;;;;;5096853;28;20031;-24
2023/03/19 04:35:12;;;;;;;8.27;5.55;;;16.40;64.60;;;;;;5096773;28;20120;-25
2023/03/19 04:37:38;;;;;;;7.13;5.25;;;16.40;64.60;;;;;;5096262;28;20123;-25
2023/03/19 04:40:05;;;;;;;6.97;5.40;;;16.40;64.60;;;;;;5096488;28;20039;-24
2023/03/19 04:42:30;;;;;;;7.20;4.75;;;16.40;64.70;;;;;;5096639;28;20058;-25
2023/03/19 04:44:56;;;;;;;7.30;4.88;;;16.40;64.60;;;;;;5096593;28;20050;-25
2023/03/19 04:47:22;;;;;;;8.68;5.68;;;16.40;64.70;;;;;;5096596;28;20380;-24
2023/03/19 04:49:48;;;;;;;7.78;5.13;;;16.40;64.70;;;;;;5095055;28;20027;-24
2023/03/19 04:52:14;;;;;;;6.75;4.97;;;16.40;64.60;;;;;;5096493;28;20028;-25
2023/03/19 04:54:40;;;;;;;7.05;5.07;;;16.40;64.70;;;;;;5094854;28;20506;-25
2023/03/19 04:57:07;;;;;;;8.10;5.55;;;16.40;64.70;;;;;;5096101;28;20020;-25
2023/03/19 04:59:33;;;;;;;7.57;5.35;;;16.40;64.70;;;;;;5096396;28;20110;-24
2023/03/19 05:01:59;;;;;;;7.95;5.15;;;16.40;64.70;;;;;;5096128;28;20136;-25
2023/03/19 05:04:26;;;;;;;8.18;4.97;;;16.40;64.70;;;;;;5095953;28;20032;-25
2023/03/19 05:06:52;;;;;;;6.95;5.15;;;16.40;64.70;;;;;;5095877;28;20110;-25
2023/03/19 05:09:18;;;;;;;7.50;5.32;;;16.40;64.70;;;;;;5096212;28;20024;-24
2023/03/19 05:11:45;;;;;;;8.10;5.28;;;16.40;64.70;;;;;;5095703;28;20095;-25
2023/03/19 05:14:11;;;;;;;7.30;5.30;;;16.40;64.70;;;;;;5095788;28;20410;-25
2023/03/19 05:16:37;;;;;;;6.82;4.78;;;16.40;64.70;;;;;;5095460;28;20055;-25
2023/03/19 05:19:03;;;;;;;7.40;5.05;;;16.40;64.70;;;;;;5095704;28;20032;-25
2023/03/19 05:21:29;;;;;;;7.32;5.35;;;16.40;64.70;;;;;;5095556;28;20030;-25
2023/03/19 05:23:56;;;;;;;9.25;5.88;;;16.40;64.70;;;;;;5095436;28;20073;-25
2023/03/19 05:26:22;;;;;;;9.13;5.47;;;16.40;64.80;;;;;;5095546;28;20032;-25
2023/03/19 05:28:48;;;;;;;7.55;5.13;;;16.40;64.70;;;;;;5095414;28;20024;-24
2023/03/19 05:31:14;;;;;;;7.20;4.80;;;16.30;64.70;;;;;;5095333;28;20032;-25
2023/03/19 05:33:40;;;;;;;7.05;5.05;;;16.40;64.70;;;;;;5095415;28;20059;-25
2023/03/19 05:36:07;;;;;;;7.78;5.60;;;16.40;64.70;;;;;;5095036;28;20054;-25
2023/03/19 05:38:32;;;;;;;6.68;5.28;;;16.40;64.70;;;;;;5094396;28;20032;-24
2023/03/19 05:41:04;;;;;;;7.13;5.13;;;16.30;64.70;;;;;;5095497;28;20067;-24
2023/03/19 05:43:30;;;;;;;7.65;5.28;;;16.30;64.70;;;;;;5095479;28;20476;-25
2023/03/19 05:45:56;;;;;;;7.45;5.32;;;16.40;64.70;;;;;;5093690;28;20027;-25
2023/03/19 05:48:22;;;;;;;6.70;5.10;;;16.30;64.70;;;;;;5095449;28;20020;-25
2023/03/19 05:50:48;;;;;;;7.65;5.60;;;16.30;64.70;;;;;;5094980;28;20039;-24
2023/03/19 05:53:14;;;;;;;6.93;5.07;;;16.30;64.70;;;;;;5095036;28;20024;-24
2023/03/19 05:55:40;;;;;;;7.20;5.10;;;16.30;64.70;;;;;;5095034;28;20024;-25
2023/03/19 05:58:06;;;;;;;6.78;4.88;;;16.30;64.70;;;;;;5094848;28;20064;-24
2023/03/19 06:00:32;;;;;;;7.57;5.47;;;16.30;64.70;;;;;;5094893;28;20360;-24
2023/03/19 06:02:59;;;;;;;7.90;5.35;;;16.30;64.70;;;;;;5095167;28;20036;-25
2023/03/19 06:05:25;;;;;;;6.18;4.82;;;16.30;64.70;;;;;;5095216;28;20103;-24
2023/03/19 06:07:51;;;;;;;6.68;4.90;;;16.30;64.70;;;;;;5094465;28;20035;-24
2023/03/19 06:10:17;;;;;;;7.15;5.00;;;16.30;64.70;;;;;;5094673;28;20028;-24
2023/03/19 06:12:43;;;;;;;6.90;5.15;;;16.30;64.70;;;;;;5094669;28;20020;-25
2023/03/19 06:15:09;;;;;;;6.97;5.22;;;16.30;64.70;;;;;;5094616;28;20077;-24
2023/03/19 06:17:36;;;;;;;7.55;5.20;;;16.30;64.70;;;;;;5094256;28;20047;-25
2023/03/19 06:20:04;;;;;;;7.18;4.90;;;16.40;64.70;;;;;;5094496;28;20024;-25
2023/03/19 06:22:30;;;;;;;7.07;5.05;;;16.30;64.70;;;;;;5094777;28;20036;-25
2023/03/19 06:24:56;;;;;;;6.88;5.10;;;16.30;64.70;;;;;;5094522;28;20395;-25
2023/03/19 06:27:22;;;;;;;6.95;4.90;;;16.30;64.70;;;;;;5094425;28;20031;-25
2023/03/19 06:29:48;;;;;;;8.48;5.38;;;16.40;64.70;;;;;;5094223;28;20054;-25
2023/03/19 06:32:14;;;;;;;7.22;5.20;;;16.30;64.70;;;;;;5094268;28;20024;-27
2023/03/19 06:34:40;;;;;;;8.10;5.10;;;16.40;64.70;;;;;;5094272;28;20012;-25
2023/03/19 06:37:06;;;;;;;7.25;5.28;;;16.40;64.70;;;;;;5094022;28;20031;-24
2023/03/19 06:39:33;;;;;;;9.00;5.50;;;16.30;64.70;;;;;;5094280;28;20104;-25
2023/03/19 06:42:00;;;;;;;9.23;5.32;;;16.30;64.70;;;;;;5094185;28;20051;-24
2023/03/19 06:44:26;;;;;;;9.43;5.10;;;16.40;64.70;;;;;;5094327;28;20426;-25
2023/03/19 06:46:52;;;;;;;7.60;5.32;;;16.40;64.70;;;;;;5093967;28;20032;-25
2023/03/19 06:49:18;;;;;;;7.85;5.05;;;16.40;64.70;;;;;;5092677;28;20035;-25
2023/03/19 06:51:44;;;;;;;8.05;5.90;;;16.40;64.70;;;;;;5093585;28;20507;-25
2023/03/19 06:54:10;;;;;;;8.90;5.38;;;16.40;64.70;;;;;;5092679;28;20028;-25
2023/03/19 06:56:36;;;;;;;6.22;4.88;;;16.40;64.70;;;;;;5093790;28;20099;-24
2023/03/19 06:59:02;;;;;;;6.97;5.03;;;16.40;64.70;;;;;;5093990;28;20123;-24
2023/03/19 07:01:28;;;;;;;8.55;5.30;;;16.40;64.70;;;;;;5092543;28;20531;-25
2023/03/19 07:03:56;;;;;;;7.93;5.30;;;16.40;64.70;;;;;;5093603;28;20028;-24
2023/03/19 07:06:22;;;;;;;6.20;5.00;;;16.40;64.70;;;;;;5093574;28;20039;-24
2023/03/19 07:08:48;;;;;;;6.38;4.90;;;16.40;64.70;;;;;;5092407;28;20024;-24
2023/03/19 07:11:15;;;;;;;8.23;5.28;;;16.40;64.70;;;;;;5092805;28;20026;-25
2023/03/19 07:13:41;;;;;;;7.45;5.28;;;16.40;64.60;;;;;;5093598;28;20032;-24
2023/03/19 07:16:08;;;;;;;7.05;4.95;;;16.40;64.70;;;;;;5093452;28;20050;-24
2023/03/19 07:18:34;;;;;;;7.68;5.70;;;16.40;64.60;;;;;;5093835;28;20059;-24
2023/03/19 07:21:02;;;;;;;8.35;5.40;;;16.40;64.70;;;;;;5093634;28;20044;-24
2023/03/19 07:23:28;;;;;;;7.45;5.22;;;16.40;64.60;;;;;;5093718;28;20171;-25
2023/03/19 07:25:54;;;;;;;7.95;5.22;;;16.40;64.60;;;;;;5093186;28;20036;-24
2023/03/19 07:28:23;;;;;;;8.75;5.70;;;16.40;64.60;;;;;;5093661;28;20073;-24
2023/03/19 07:30:52;;;;;;;6.78;5.03;;;16.40;64.60;;;;;;5093595;28;20028;-24
2023/03/19 07:33:19;;;;;;;7.22;5.20;;;16.50;64.60;;;;;;5093397;28;20066;-24
2023/03/19 07:35:47;;;;;;;8.15;5.65;;;16.50;64.50;;;;;;5092910;28;20035;-24
2023/03/19 07:38:13;;;;;;;7.85;5.55;;;16.50;64.50;;;;;;5093416;28;20020;-24
2023/03/19 07:40:40;;;;;;;7.53;4.95;;;16.50;64.50;;;;;;5093338;28;20039;-24
2023/03/19 07:43:06;;;;;;;8.10;4.97;;;16.50;64.50;;;;;;5093211;28;20028;-24
2023/03/19 07:45:32;;;;;;;8.48;5.40;;;16.60;64.40;;;;;;5093235;28;20079;-24
2023/03/19 07:48:02;;;;;;;9.23;5.70;;;16.60;64.40;;;;;;5092886;28;20020;-24
2023/03/19 07:50:30;;;;;;;8.57;5.57;;;16.60;64.40;;;;;;5093122;28;20111;-24
2023/03/19 07:52:56;;;;;;;9.57;5.43;;;16.70;64.40;;;;;;5093139;28;20024;-24
2023/03/19 07:55:22;;;;;;;6.72;5.07;;;16.70;64.40;;;;;;5093045;28;20495;-24
2023/03/19 07:57:48;;;;;;;7.80;4.95;;;16.70;64.30;;;;;;5092753;28;20486;-24
2023/03/19 08:00:15;;;;;;;8.75;5.97;;;16.70;64.30;;;;;;5093036;28;20035;-23
2023/03/19 08:02:41;;;;;;;8.77;5.55;;;16.70;64.30;;;;;;5095665;28;20063;-25
2023/03/19 08:05:08;;;;;;;6.78;5.13;;;16.70;64.20;;;;;;5097390;28;20105;-24
2023/03/19 08:07:34;;;;;;;7.85;5.10;;;16.80;64.20;;;;;;5097385;28;20069;-24
2023/03/19 08:10:01;;;;;;;7.95;5.00;;;16.80;64.20;;;;;;5096886;28;20032;-23
2023/03/19 08:12:27;;;;;;;7.55;4.88;;;16.80;64.10;;;;;;5097766;28;20032;-24
2023/03/19 08:14:53;;;;;;;7.53;5.05;;;16.80;64.10;;;;;;5096918;28;20373;-24
2023/03/19 08:17:20;;;;;;;8.23;5.32;;;16.80;64.10;;;;;;5095955;28;20048;-24
2023/03/19 08:19:46;;;;;;;6.47;4.72;;;16.80;64.10;;;;;;5096634;28;20120;-24
2023/03/19 08:22:12;;;;;;;7.55;4.82;;;16.80;64.00;;;;;;5096984;28;20059;-23
2023/03/19 08:24:38;;;;;;;6.95;4.82;;;16.90;64.00;;;;;;5095434;28;20077;-24
2023/03/19 08:27:05;;;;;;;7.60;5.25;;;16.80;64.00;;;;;;5096967;28;20031;-24
2023/03/19 08:29:31;;;;;;;7.25;5.03;;;16.90;64.00;;;;;;5095784;28;20038;-24
2023/03/19 08:31:59;;;;;;;7.43;4.70;;;16.90;63.90;;;;;;5096742;28;20081;-25
2023/03/19 08:34:25;;;;;;;8.02;5.25;;;16.90;63.90;;;;;;5096770;28;20028;-23
2023/03/19 08:36:51;;;;;;;7.55;5.03;;;16.90;63.90;;;;;;5096408;28;20039;-23
2023/03/19 08:39:18;;;;;;;10.32;4.93;;;16.90;63.80;;;;;;5096409;28;20020;-24
2023/03/19 08:41:44;;;;;;;6.53;5.10;;;16.90;63.80;;;;;;5096462;28;20024;-25
2023/03/19 08:44:10;;;;;;;8.18;4.90;;;16.90;63.80;;;;;;5096347;28;20115;-24
2023/03/19 08:46:35;;;;;;;6.95;5.13;;;16.90;63.80;;;;;;5095073;28;20103;-24
2023/03/19 08:49:01;;;;;;;6.93;4.60;;;16.90;63.70;;;;;;5096684;28;20024;-24
2023/03/19 08:51:29;;;;;;;9.30;5.70;;;16.90;63.70;;;;;;5096186;28;20020;-24
2023/03/19 08:53:56;;;;;;;6.05;4.72;;;16.90;63.70;;;;;;5096045;28;20032;-24
2023/03/19 08:56:22;;;;;;;9.93;5.35;;;16.90;63.70;;;;;;5094813;28;20062;-24
2023/03/19 08:58:48;;;;;;;7.05;5.05;;;16.90;63.70;;;;;;5096098;28;20055;-24
2023/03/19 09:01:14;;;;;;;8.15;5.18;;;16.90;63.70;;;;;;5095966;28;20035;-24
2023/03/19 09:03:42;;;;;;;9.00;4.80;;;16.90;63.60;;;;;;5096103;28;20488;-24
2023/03/19 09:06:09;;;;;;;5.60;4.40;;;16.90;63.60;;;;;;5096029;28;20026;-24
2023/03/19 09:08:36;;;;;;;7.97;4.90;;;16.90;63.60;;;;;;5096633;28;20027;-24
2023/03/19 09:11:04;;;;;;;10.50;5.18;;;16.90;63.60;;;;;;5096041;28;20031;-24
2023/03/19 09:13:30;;;;;;;7.65;4.90;;;17.00;63.60;;;;;;5094941;28;20059;-23
2023/03/19 09:15:56;;;;;;;8.50;5.03;;;16.90;63.60;;;;;;5095852;28;20453;-24
2023/03/19 09:18:24;;;;;;;5.43;4.30;;;17.00;63.60;;;;;;5094229;28;20123;-25
2023/03/19 09:20:53;;;;;;;7.40;4.72;;;16.90;63.60;;;;;;5095625;28;20514;-24
2023/03/19 09:23:21;;;;;;;6.18;4.22;;;17.00;63.60;;;;;;5095796;28;20483;-24
2023/03/19 09:25:48;;;;;;;8.45;5.00;;;16.90;63.50;;;;;;5095721;28;20032;-25
2023/03/19 09:28:14;;;;;;;7.90;4.35;;;17.00;63.60;;;;;;5095813;28;20464;-24
2023/03/19 09:30:40;;;;;;;7.47;4.68;;;17.00;63.60;;;;;;5095491;28;20028;-25
2023/03/19 09:33:09;;;;;;;7.45;4.88;;;17.00;63.50;;;;;;5095842;28;20028;-24
2023/03/19 09:35:37;;;;;;;7.57;5.07;;;17.00;63.50;;;;;;5095301;28;20361;-24
2023/03/19 09:38:03;;;;;;;8.25;5.13;;;17.00;63.50;;;;;;5095215;28;20028;-24
2023/03/19 09:40:35;;;;;;;6.50;4.45;;;17.00;63.40;;;;;;5095638;28;20028;-24
2023/03/19 09:43:23;;;;;;;8.35;5.20;;;17.00;63.40;;;;;;5095354;28;20471;-25
2023/03/19 09:45:50;;;;;;;8.43;5.38;;;17.00;63.50;;;;;;5095340;28;20035;-24
2023/03/19 09:48:27;;;;;;;7.72;4.57;;;17.00;63.60;;;;;;5095523;28;20024;-24
2023/03/19 09:50:55;;;;;;;6.93;4.22;;;17.00;63.70;;;;;;5095112;28;20478;-24
2023/03/19 09:53:56;;;;;;;6.80;4.57;;;17.10;63.70;;;;;;5095116;28;20039;-24
2023/03/19 09:56:23;;;;;;;6.88;4.43;;;17.10;63.80;;;;;;5093666;28;20036;-24
2023/03/19 09:58:49;;;;;;;6.40;4.60;;;17.10;63.80;;;;;;5095206;28;20115;-24
2023/03/19 10:01:33;;;;;;;7.97;5.40;;;17.10;63.80;;;;;;5095019;28;20114;-25
2023/03/19 10:04:04;;;;;;;6.97;4.75;;;17.10;63.70;;;;;;5094677;28;20487;-25
2023/03/19 10:06:36;;;;;;;6.43;4.45;;;17.10;63.70;;;;;;5095037;28;20430;-24
2023/03/19 10:09:20;;;;;;;8.30;4.95;;;17.10;63.70;;;;;;5093589;28;20016;-23
2023/03/19 10:11:49;;;;;;;7.85;4.35;;;17.20;63.70;;;;;;5094537;28;20111;-23
2023/03/19 10:14:28;;;;;;;9.60;5.10;;;17.20;63.80;;;;;;5094732;28;20112;-24
2023/03/19 10:16:57;;;;;;;7.28;4.82;;;17.20;63.70;;;;;;5094545;28;20052;-24
2023/03/19 10:19:52;;;;;;;6.60;4.70;;;17.20;63.60;;;;;;5094496;28;20115;-25
2023/03/19 10:22:26;;;;;;;8.48;4.72;;;17.20;63.60;;;;;;5088613;28;20035;-24
2023/03/19 10:24:55;;;;;;;6.82;4.28;;;17.20;63.50;;;;;;5094084;28;20563;-24
2023/03/19 10:27:25;;;;;;;8.38;4.82;;;17.20;63.50;;;;;;5094890;28;20028;-25
2023/03/19 10:29:51;;;;;;;7.53;4.43;;;17.20;63.50;;;;;;5094181;28;20527;-24
2023/03/19 10:32:19;;;;;;;7.10;4.45;;;17.20;63.50;;;;;;5094389;28;20031;-25
2023/03/19 10:34:47;;;;;;;9.18;5.22;;;17.20;63.60;;;;;;5094263;28;20028;-24
2023/03/19 10:37:18;;;;;;;5.80;4.13;;;17.20;63.60;;;;;;5094020;28;20371;-24
2023/03/19 10:39:46;;;;;;;7.72;4.53;;;17.20;63.60;;;;;;5094232;28;20036;-25
2023/03/19 10:42:38;;;;;;;8.00;4.63;;;17.30;63.60;;;;;;5094291;28;20020;-25
2023/03/19 10:45:26;;;;;;;6.93;4.50;;;17.30;63.60;;;;;;5094402;28;20071;-24
2023/03/19 10:47:55;;;;;;;6.20;4.18;;;17.30;63.60;;;;;;5092480;28;20499;-24
2023/03/19 10:50:42;;;;;;;7.85;4.20;;;17.40;63.60;;;;;;5093889;28;20032;-24
2023/03/19 10:53:13;;;;;;;7.05;4.10;;;17.40;63.60;;;;;;5094218;28;20110;-24
2023/03/19 10:56:22;;;;;;;7.18;4.47;;;17.40;63.60;;;;;;5094155;28;20028;-24
2023/03/19 10:59:20;;;;;;;6.63;4.78;;;17.40;63.80;;;;;;5051469;28;20040;-24
2023/03/19 11:01:46;;;;;;;11.57;6.55;;;17.50;63.70;;;;;;5051375;28;20029;-23
2023/03/19 11:04:18;;;;;;;11.00;6.50;;;17.50;63.60;;;;;;5051328;28;20531;-23
2023/03/19 11:06:52;;;;;;;11.45;7.25;;;17.50;63.50;;;;;;5051348;28;20060;-24
2023/03/19 11:09:36;;;;;;;11.07;7.32;;;17.50;63.40;;;;;;5051406;28;20086;-24
2023/03/19 11:12:16;;;;;;;11.80;7.15;;;17.50;63.30;;;;;;5051187;28;20029;-24
2023/03/19 11:14:45;;;;;;;12.20;7.25;;;17.50;63.20;;;;;;5051218;28;20082;-24
2023/03/19 11:17:36;;;;;;;13.55;6.82;;;17.60;63.10;;;;;;5050952;28;20408;-24
2023/03/19 11:20:37;;;;;;;9.70;6.32;;;17.60;63.00;;;;;;5041137;28;20420;-25
2023/03/19 11:23:14;;;;;;;10.15;6.13;;;17.60;63.00;;;;;;5051144;28;20021;-23
2023/03/19 11:25:46;;;;;;;11.18;6.15;;;17.60;62.90;;;;;;5051141;28;20036;-24
2023/03/19 11:28:14;;;;;;;11.98;6.50;;;17.60;63.10;;;;;;5051200;28;20041;-24
2023/03/19 11:31:07;;;;;;;9.00;5.82;;;17.70;63.10;;;;;;5051005;28;20120;-23
2023/03/19 11:34:03;;;;;;;8.17;5.30;;;17.70;63.20;;;;;;5061188;28;20107;-24
2023/03/19 11:36:48;;;;;;;8.88;5.70;;;17.70;63.20;;;;;;5091523;28;20165;-23
2023/03/19 11:39:32;;;;;;;9.82;5.70;;;17.70;63.20;;;;;;5091924;28;20036;-23
2023/03/19 11:42:09;;;;;;;10.65;6.03;;;17.70;63.10;;;;;;5093247;28;20020;-23
2023/03/19 11:44:47;;;;;;;7.57;4.97;;;17.70;63.00;;;;;;5093681;28;20032;-24
2023/03/19 11:47:35;;;;;;;9.45;4.90;;;17.70;63.00;;;;;;5093793;28;20118;-23
2023/03/19 11:50:29;;;;;;;9.70;5.47;;;17.70;63.00;;;;;;5092981;28;20028;-23
2023/03/19 11:53:07;;;;;;;10.02;5.28;;;17.70;62.90;;;;;;5093258;28;20032;-23
2023/03/19 11:55:52;;;;;;;8.18;5.32;;;17.70;62.70;;;;;;5093079;28;20028;-23
2023/03/19 11:58:56;;;;;;;7.25;4.65;;;17.70;62.60;;;;;;5093013;28;20384;-23
2023/03/19 12:01:41;;;;;;;6.75;4.55;;;17.70;62.50;;;;;;5093027;28;20075;-23
2023/03/19 12:04:19;;;;;;;8.32;4.80;;;17.70;62.60;;;;;;5093442;28;20024;-24
2023/03/19 12:07:12;;;;;;;7.65;4.80;;;17.70;62.60;;;;;;5092931;28;20073;-23
2023/03/19 12:09:59;;;;;;;5.78;4.00;;;17.70;62.60;;;;;;5092977;28;20021;-24
2023/03/19 12:12:48;;;;;;;9.05;5.03;;;17.70;62.60;;;;;;5093003;28;20038;-23
2023/03/19 12:15:40;;;;;;;6.30;4.45;;;17.70;62.60;;;;;;5093285;28;20107;-23
2023/03/19 12:18:19;;;;;;;6.75;4.47;;;17.70;62.50;;;;;;5090344;28;20047;-24
2023/03/19 12:20:51;;;;;;;7.32;4.25;;;17.70;62.60;;;;;;5092817;28;20039;-24
2023/03/19 12:23:41;;;;;;;6.20;4.30;;;17.70;62.60;;;;;;5092944;28;20025;-24
2023/03/19 12:26:16;;;;;;;7.32;4.30;;;17.70;62.60;;;;;;5092812;28;20058;-24
2023/03/19 12:29:14;;;;;;;7.57;4.75;;;17.70;62.50;;;;;;5092832;28;20028;-23
2023/03/19 12:32:06;;;;;;;6.60;4.30;;;17.70;62.50;;;;;;5084487;28;20028;-24
2023/03/19 12:34:51;;;;;;;7.82;4.63;;;17.70;62.50;;;;;;5087556;28;20111;-24
2023/03/19 12:37:16;;;;;;;7.00;4.03;;;17.70;62.60;;;;;;5092611;28;20026;-24
2023/03/19 12:40:00;;;;;;;7.50;4.72;;;17.70;62.70;;;;;;5092798;28;20024;-26
2023/03/19 12:42:32;;;;;;;7.15;4.20;;;17.70;62.40;;;;;;5092738;28;20483;-24
2023/03/19 12:44:59;;;;;;;8.75;4.53;;;17.70;62.30;;;;;;5092672;28;20024;-24
2023/03/19 12:47:34;;;;;;;8.00;4.50;;;17.70;62.40;;;;;;5093148;28;20483;-24
2023/03/19 12:50:04;;;;;;;7.38;4.50;;;17.70;62.30;;;;;;5096196;28;20032;-23
2023/03/19 12:52:42;;;;;;;6.00;3.92;;;17.70;62.30;;;;;;5096727;28;20111;-24
2023/03/19 12:55:26;;;;;;;6.57;3.95;;;17.70;62.50;;;;;;5096413;28;20146;-24
2023/03/19 12:58:20;;;;;;;7.38;4.05;;;17.70;62.50;;;;;;5095800;28;20024;-23
2023/03/19 13:01:01;;;;;;;6.07;4.10;;;17.70;62.50;;;;;;5096195;28;20035;-23